sensor_id;sensor_type;location;lat;lon;timestamp;P1;durP1;ratioP1;P2;durP2;ratioP2
52386;SDS011;38317;53.084;6.960;2023-02-03T00:01:08;3.17;;;0.60;;
52386;SDS011;38317;53.084;6.960;2023-02-03T00:03:34;7.95;;;1.50;;
52386;SDS011;38317;53.084;6.960;2023-02-03T00:06:00;3.30;;;0.80;;
52386;SDS011;38317;53.084;6.960;2023-02-03T00:08:27;4.30;;;0.82;;
52386;SDS011;38317;53.084;6.960;2023-02-03T00:10:53;5.32;;;1.38;;
52386;SDS011;38317;53.084;6.960;2023-02-03T00:13:19;6.20;;;1.08;;
52386;SDS011;38317;53.084;6.960;2023-02-03T00:15:45;7.35;;;1.25;;
52386;SDS011;38317;53.084;6.960;2023-02-03T00:18:11;7.07;;;0.95;;
52386;SDS011;38317;53.084;6.960;2023-02-03T00:20:36;3.65;;;0.90;;
52386;SDS011;38317;53.084;6.960;2023-02-03T00:23:06;5.07;;;0.88;;
52386;SDS011;38317;53.084;6.960;2023-02-03T00:25:33;4.55;;;1.10;;
52386;SDS011;38317;53.084;6.960;2023-02-03T00:27:59;5.35;;;1.33;;
52386;SDS011;38317;53.084;6.960;2023-02-03T00:30:25;5.32;;;1.30;;
52386;SDS011;38317;53.084;6.960;2023-02-03T00:32:51;7.85;;;1.15;;
52386;SDS011;38317;53.084;6.960;2023-02-03T00:35:16;5.07;;;1.15;;
52386;SDS011;38317;53.084;6.960;2023-02-03T00:37:42;3.63;;;1.10;;
52386;SDS011;38317;53.084;6.960;2023-02-03T00:40:08;6.35;;;1.17;;
52386;SDS011;38317;53.084;6.960;2023-02-03T00:42:34;5.88;;;0.90;;
52386;SDS011;38317;53.084;6.960;2023-02-03T00:45:00;8.15;;;1.10;;
52386;SDS011;38317;53.084;6.960;2023-02-03T00:47:26;4.13;;;0.90;;
52386;SDS011;38317;53.084;6.960;2023-02-03T00:49:52;5.07;;;1.17;;
52386;SDS011;38317;53.084;6.960;2023-02-03T00:52:18;3.40;;;0.82;;
52386;SDS011;38317;53.084;6.960;2023-02-03T00:54:43;4.63;;;1.10;;
52386;SDS011;38317;53.084;6.960;2023-02-03T00:57:09;5.65;;;0.80;;
52386;SDS011;38317;53.084;6.960;2023-02-03T00:59:35;5.63;;;1.20;;
52386;SDS011;38317;53.084;6.960;2023-02-03T01:02:01;2.97;;;0.80;;
52386;SDS011;38317;53.084;6.960;2023-02-03T01:04:26;7.40;;;1.08;;
52386;SDS011;38317;53.084;6.960;2023-02-03T01:06:52;4.05;;;0.80;;
52386;SDS011;38317;53.084;6.960;2023-02-03T01:09:22;6.72;;;0.80;;
52386;SDS011;38317;53.084;6.960;2023-02-03T01:11:48;5.90;;;1.48;;
52386;SDS011;38317;53.084;6.960;2023-02-03T01:14:14;3.78;;;0.70;;
52386;SDS011;38317;53.084;6.960;2023-02-03T01:16:40;5.07;;;0.80;;
52386;SDS011;38317;53.084;6.960;2023-02-03T01:19:06;6.20;;;1.25;;
52386;SDS011;38317;53.084;6.960;2023-02-03T01:21:32;6.40;;;1.30;;
52386;SDS011;38317;53.084;6.960;2023-02-03T01:23:58;4.85;;;0.80;;
52386;SDS011;38317;53.084;6.960;2023-02-03T01:26:24;5.05;;;1.33;;
52386;SDS011;38317;53.084;6.960;2023-02-03T01:28:55;6.45;;;1.33;;
52386;SDS011;38317;53.084;6.960;2023-02-03T01:31:23;3.90;;;0.70;;
52386;SDS011;38317;53.084;6.960;2023-02-03T01:33:54;5.32;;;0.80;;
52386;SDS011;38317;53.084;6.960;2023-02-03T01:36:22;5.32;;;0.70;;
52386;SDS011;38317;53.084;6.960;2023-02-03T01:38:48;7.97;;;1.25;;
52386;SDS011;38317;53.084;6.960;2023-02-03T01:41:16;6.30;;;1.10;;
52386;SDS011;38317;53.084;6.960;2023-02-03T01:43:46;3.83;;;0.80;;
52386;SDS011;38317;53.084;6.960;2023-02-03T01:48:48;4.63;;;0.90;;
52386;SDS011;38317;53.084;6.960;2023-02-03T01:51:14;5.60;;;1.05;;
52386;SDS011;38317;53.084;6.960;2023-02-03T01:53:40;5.90;;;1.25;;
52386;SDS011;38317;53.084;6.960;2023-02-03T01:56:06;6.75;;;1.10;;
52386;SDS011;38317;53.084;6.960;2023-02-03T01:58:34;3.28;;;0.60;;
52386;SDS011;38317;53.084;6.960;2023-02-03T02:01:03;9.57;;;1.10;;
52386;SDS011;38317;53.084;6.960;2023-02-03T02:03:40;5.95;;;0.90;;
52386;SDS011;38317;53.084;6.960;2023-02-03T02:06:10;4.95;;;0.90;;
52386;SDS011;38317;53.084;6.960;2023-02-03T02:08:38;6.28;;;1.00;;
52386;SDS011;38317;53.084;6.960;2023-02-03T02:11:06;6.03;;;1.15;;
52386;SDS011;38317;53.084;6.960;2023-02-03T02:13:33;6.70;;;1.13;;
52386;SDS011;38317;53.084;6.960;2023-02-03T02:19:30;8.10;;;1.30;;
52386;SDS011;38317;53.084;6.960;2023-02-03T02:35:46;6.78;;;1.00;;
52386;SDS011;38317;53.084;6.960;2023-02-03T02:41:41;3.42;;;1.00;;
52386;SDS011;38317;53.084;6.960;2023-02-03T02:44:26;6.40;;;1.33;;
52386;SDS011;38317;53.084;6.960;2023-02-03T02:46:57;6.55;;;0.95;;
52386;SDS011;38317;53.084;6.960;2023-02-03T02:51:59;7.60;;;1.33;;
52386;SDS011;38317;53.084;6.960;2023-02-03T02:54:28;5.40;;;1.00;;
52386;SDS011;38317;53.084;6.960;2023-02-03T02:56:57;7.35;;;1.10;;
52386;SDS011;38317;53.084;6.960;2023-02-03T02:59:25;9.35;;;1.05;;
52386;SDS011;38317;53.084;6.960;2023-02-03T03:01:51;9.35;;;1.40;;
52386;SDS011;38317;53.084;6.960;2023-02-03T03:04:18;6.07;;;1.20;;
52386;SDS011;38317;53.084;6.960;2023-02-03T03:06:56;6.70;;;1.33;;
52386;SDS011;38317;53.084;6.960;2023-02-03T03:09:37;5.32;;;1.23;;
52386;SDS011;38317;53.084;6.960;2023-02-03T03:12:17;6.07;;;0.88;;
52386;SDS011;38317;53.084;6.960;2023-02-03T03:15:05;9.02;;;1.13;;
52386;SDS011;38317;53.084;6.960;2023-02-03T03:17:39;8.68;;;1.25;;
52386;SDS011;38317;53.084;6.960;2023-02-03T03:20:14;6.30;;;1.00;;
52386;SDS011;38317;53.084;6.960;2023-02-03T03:22:46;6.97;;;1.00;;
52386;SDS011;38317;53.084;6.960;2023-02-03T03:25:19;5.43;;;1.20;;
52386;SDS011;38317;53.084;6.960;2023-02-03T03:27:48;5.13;;;1.05;;
52386;SDS011;38317;53.084;6.960;2023-02-03T03:30:20;6.85;;;1.15;;
52386;SDS011;38317;53.084;6.960;2023-02-03T03:32:52;6.97;;;1.63;;
52386;SDS011;38317;53.084;6.960;2023-02-03T03:35:18;10.07;;;1.75;;
52386;SDS011;38317;53.084;6.960;2023-02-03T03:37:55;5.78;;;1.70;;
52386;SDS011;38317;53.084;6.960;2023-02-03T03:40:37;8.27;;;1.13;;
52386;SDS011;38317;53.084;6.960;2023-02-03T03:43:09;6.13;;;1.38;;
52386;SDS011;38317;53.084;6.960;2023-02-03T03:45:54;7.53;;;1.27;;
52386;SDS011;38317;53.084;6.960;2023-02-03T03:51:23;8.93;;;1.95;;
52386;SDS011;38317;53.084;6.960;2023-02-03T03:53:52;7.53;;;1.40;;
52386;SDS011;38317;53.084;6.960;2023-02-03T03:56:33;8.88;;;1.35;;
52386;SDS011;38317;53.084;6.960;2023-02-03T03:59:21;10.55;;;1.85;;
52386;SDS011;38317;53.084;6.960;2023-02-03T04:01:49;8.77;;;1.60;;
52386;SDS011;38317;53.084;6.960;2023-02-03T04:04:16;7.47;;;1.88;;
52386;SDS011;38317;53.084;6.960;2023-02-03T04:06:43;7.22;;;1.65;;
52386;SDS011;38317;53.084;6.960;2023-02-03T04:09:09;5.80;;;1.00;;
52386;SDS011;38317;53.084;6.960;2023-02-03T04:11:35;8.55;;;1.33;;
52386;SDS011;38317;53.084;6.960;2023-02-03T04:14:19;9.05;;;1.25;;
52386;SDS011;38317;53.084;6.960;2023-02-03T04:16:45;7.47;;;1.20;;
52386;SDS011;38317;53.084;6.960;2023-02-03T04:19:10;4.57;;;1.50;;
52386;SDS011;38317;53.084;6.960;2023-02-03T04:21:36;5.13;;;0.90;;
52386;SDS011;38317;53.084;6.960;2023-02-03T04:24:05;5.82;;;1.00;;
52386;SDS011;38317;53.084;6.960;2023-02-03T04:26:31;8.70;;;1.45;;
52386;SDS011;38317;53.084;6.960;2023-02-03T04:28:56;7.20;;;1.25;;
52386;SDS011;38317;53.084;6.960;2023-02-03T04:31:22;7.35;;;1.27;;
52386;SDS011;38317;53.084;6.960;2023-02-03T04:33:48;8.30;;;1.88;;
52386;SDS011;38317;53.084;6.960;2023-02-03T04:36:14;7.40;;;1.13;;
52386;SDS011;38317;53.084;6.960;2023-02-03T04:38:39;11.63;;;1.70;;
52386;SDS011;38317;53.084;6.960;2023-02-03T04:41:05;9.35;;;1.63;;
52386;SDS011;38317;53.084;6.960;2023-02-03T04:43:31;8.30;;;1.25;;
52386;SDS011;38317;53.084;6.960;2023-02-03T04:46:00;8.00;;;1.08;;
52386;SDS011;38317;53.084;6.960;2023-02-03T04:48:26;7.15;;;1.17;;
52386;SDS011;38317;53.084;6.960;2023-02-03T04:50:51;5.97;;;1.10;;
52386;SDS011;38317;53.084;6.960;2023-02-03T04:53:17;7.30;;;1.73;;
52386;SDS011;38317;53.084;6.960;2023-02-03T04:55:46;6.63;;;1.38;;
52386;SDS011;38317;53.084;6.960;2023-02-03T04:58:12;8.23;;;1.58;;
52386;SDS011;38317;53.084;6.960;2023-02-03T05:00:38;8.35;;;1.08;;
52386;SDS011;38317;53.084;6.960;2023-02-03T05:03:04;8.75;;;1.23;;
52386;SDS011;38317;53.084;6.960;2023-02-03T05:05:30;6.22;;;1.30;;
52386;SDS011;38317;53.084;6.960;2023-02-03T05:07:56;8.20;;;1.77;;
52386;SDS011;38317;53.084;6.960;2023-02-03T05:10:21;9.07;;;1.13;;
52386;SDS011;38317;53.084;6.960;2023-02-03T05:12:47;4.78;;;0.80;;
52386;SDS011;38317;53.084;6.960;2023-02-03T05:15:13;9.80;;;1.23;;
52386;SDS011;38317;53.084;6.960;2023-02-03T05:17:38;7.65;;;1.23;;
52386;SDS011;38317;53.084;6.960;2023-02-03T05:20:05;8.40;;;1.55;;
52386;SDS011;38317;53.084;6.960;2023-02-03T05:22:31;10.88;;;1.40;;
52386;SDS011;38317;53.084;6.960;2023-02-03T05:24:59;8.32;;;1.33;;
52386;SDS011;38317;53.084;6.960;2023-02-03T05:27:25;4.28;;;1.00;;
52386;SDS011;38317;53.084;6.960;2023-02-03T05:29:51;8.38;;;2.15;;
52386;SDS011;38317;53.084;6.960;2023-02-03T05:32:16;8.93;;;1.52;;
52386;SDS011;38317;53.084;6.960;2023-02-03T05:34:42;5.32;;;1.27;;
52386;SDS011;38317;53.084;6.960;2023-02-03T05:37:08;9.32;;;1.48;;
52386;SDS011;38317;53.084;6.960;2023-02-03T05:39:34;5.65;;;1.40;;
52386;SDS011;38317;53.084;6.960;2023-02-03T05:41:59;11.05;;;1.70;;
52386;SDS011;38317;53.084;6.960;2023-02-03T05:44:27;6.72;;;1.00;;
52386;SDS011;38317;53.084;6.960;2023-02-03T05:46:53;9.68;;;1.58;;
52386;SDS011;38317;53.084;6.960;2023-02-03T05:49:23;6.72;;;1.45;;
52386;SDS011;38317;53.084;6.960;2023-02-03T05:51:52;10.57;;;1.70;;
52386;SDS011;38317;53.084;6.960;2023-02-03T05:54:19;11.30;;;1.33;;
52386;SDS011;38317;53.084;6.960;2023-02-03T05:56:45;8.63;;;1.70;;
52386;SDS011;38317;53.084;6.960;2023-02-03T05:59:10;9.18;;;1.23;;
52386;SDS011;38317;53.084;6.960;2023-02-03T06:01:36;8.15;;;1.38;;
52386;SDS011;38317;53.084;6.960;2023-02-03T06:04:02;5.78;;;1.10;;
52386;SDS011;38317;53.084;6.960;2023-02-03T06:06:29;9.43;;;1.65;;
52386;SDS011;38317;53.084;6.960;2023-02-03T06:09:05;10.45;;;1.80;;
52386;SDS011;38317;53.084;6.960;2023-02-03T06:11:32;8.43;;;1.42;;
52386;SDS011;38317;53.084;6.960;2023-02-03T06:14:00;7.50;;;1.80;;
52386;SDS011;38317;53.084;6.960;2023-02-03T06:16:27;9.18;;;1.80;;
52386;SDS011;38317;53.084;6.960;2023-02-03T06:18:54;10.63;;;1.85;;
52386;SDS011;38317;53.084;6.960;2023-02-03T06:21:25;15.07;;;2.50;;
52386;SDS011;38317;53.084;6.960;2023-02-03T06:23:51;6.22;;;1.70;;
52386;SDS011;38317;53.084;6.960;2023-02-03T06:26:17;10.93;;;1.58;;
52386;SDS011;38317;53.084;6.960;2023-02-03T06:28:42;8.25;;;1.63;;
52386;SDS011;38317;53.084;6.960;2023-02-03T06:31:09;11.18;;;1.90;;
52386;SDS011;38317;53.084;6.960;2023-02-03T06:33:35;15.98;;;1.95;;
52386;SDS011;38317;53.084;6.960;2023-02-03T06:36:01;12.73;;;2.30;;
52386;SDS011;38317;53.084;6.960;2023-02-03T06:38:27;9.25;;;1.80;;
52386;SDS011;38317;53.084;6.960;2023-02-03T06:40:52;9.85;;;2.28;;
52386;SDS011;38317;53.084;6.960;2023-02-03T06:43:21;12.70;;;2.15;;
52386;SDS011;38317;53.084;6.960;2023-02-03T06:45:47;11.20;;;1.77;;
52386;SDS011;38317;53.084;6.960;2023-02-03T06:48:13;10.75;;;1.85;;
52386;SDS011;38317;53.084;6.960;2023-02-03T06:50:39;9.50;;;1.77;;
52386;SDS011;38317;53.084;6.960;2023-02-03T06:53:05;13.15;;;1.98;;
52386;SDS011;38317;53.084;6.960;2023-02-03T06:55:30;10.70;;;2.10;;
52386;SDS011;38317;53.084;6.960;2023-02-03T06:57:56;11.07;;;2.20;;
52386;SDS011;38317;53.084;6.960;2023-02-03T07:00:22;9.32;;;2.13;;
52386;SDS011;38317;53.084;6.960;2023-02-03T07:02:52;11.55;;;2.10;;
52386;SDS011;38317;53.084;6.960;2023-02-03T07:05:22;13.93;;;1.90;;
52386;SDS011;38317;53.084;6.960;2023-02-03T07:07:48;11.98;;;1.90;;
52386;SDS011;38317;53.084;6.960;2023-02-03T07:10:15;12.65;;;2.25;;
52386;SDS011;38317;53.084;6.960;2023-02-03T07:12:41;20.88;;;3.72;;
52386;SDS011;38317;53.084;6.960;2023-02-03T07:15:07;12.65;;;2.10;;
52386;SDS011;38317;53.084;6.960;2023-02-03T07:17:33;12.55;;;2.28;;
52386;SDS011;38317;53.084;6.960;2023-02-03T07:19:59;8.90;;;2.20;;
52386;SDS011;38317;53.084;6.960;2023-02-03T07:22:31;10.38;;;2.10;;
52386;SDS011;38317;53.084;6.960;2023-02-03T07:24:57;15.13;;;2.63;;
52386;SDS011;38317;53.084;6.960;2023-02-03T07:27:23;10.30;;;1.90;;
52386;SDS011;38317;53.084;6.960;2023-02-03T07:29:49;9.45;;;1.88;;
52386;SDS011;38317;53.084;6.960;2023-02-03T07:32:15;13.15;;;1.98;;
52386;SDS011;38317;53.084;6.960;2023-02-03T07:34:40;11.43;;;1.63;;
52386;SDS011;38317;53.084;6.960;2023-02-03T07:37:06;13.85;;;1.70;;
52386;SDS011;38317;53.084;6.960;2023-02-03T07:39:32;17.70;;;3.03;;
52386;SDS011;38317;53.084;6.960;2023-02-03T07:41:58;12.90;;;2.38;;
52386;SDS011;38317;53.084;6.960;2023-02-03T07:44:24;13.55;;;2.10;;
52386;SDS011;38317;53.084;6.960;2023-02-03T07:46:49;9.73;;;1.70;;
52386;SDS011;38317;53.084;6.960;2023-02-03T07:49:15;15.30;;;2.88;;
52386;SDS011;38317;53.084;6.960;2023-02-03T07:51:41;10.43;;;2.03;;
52386;SDS011;38317;53.084;6.960;2023-02-03T07:54:06;10.13;;;1.70;;
52386;SDS011;38317;53.084;6.960;2023-02-03T07:56:32;12.13;;;2.08;;
52386;SDS011;38317;53.084;6.960;2023-02-03T07:58:58;14.27;;;2.80;;
52386;SDS011;38317;53.084;6.960;2023-02-03T08:01:24;9.02;;;1.58;;
52386;SDS011;38317;53.084;6.960;2023-02-03T08:03:50;10.27;;;2.20;;
52386;SDS011;38317;53.084;6.960;2023-02-03T08:06:16;13.20;;;2.55;;
52386;SDS011;38317;53.084;6.960;2023-02-03T08:08:42;16.38;;;2.50;;
52386;SDS011;38317;53.084;6.960;2023-02-03T08:11:08;8.05;;;1.85;;
52386;SDS011;38317;53.084;6.960;2023-02-03T08:13:35;12.10;;;2.25;;
52386;SDS011;38317;53.084;6.960;2023-02-03T08:16:00;13.57;;;2.55;;
52386;SDS011;38317;53.084;6.960;2023-02-03T08:18:26;13.13;;;2.55;;
52386;SDS011;38317;53.084;6.960;2023-02-03T08:20:52;10.93;;;2.20;;
52386;SDS011;38317;53.084;6.960;2023-02-03T08:23:18;12.02;;;2.03;;
52386;SDS011;38317;53.084;6.960;2023-02-03T08:25:43;18.63;;;2.40;;
52386;SDS011;38317;53.084;6.960;2023-02-03T08:28:09;11.90;;;2.53;;
52386;SDS011;38317;53.084;6.960;2023-02-03T08:30:35;12.77;;;1.98;;
52386;SDS011;38317;53.084;6.960;2023-02-03T08:33:01;10.70;;;2.15;;
52386;SDS011;38317;53.084;6.960;2023-02-03T08:35:26;11.68;;;2.40;;
52386;SDS011;38317;53.084;6.960;2023-02-03T08:37:52;11.48;;;2.28;;
52386;SDS011;38317;53.084;6.960;2023-02-03T08:40:18;10.75;;;2.50;;
52386;SDS011;38317;53.084;6.960;2023-02-03T08:42:44;10.20;;;2.13;;
52386;SDS011;38317;53.084;6.960;2023-02-03T08:45:10;9.73;;;1.75;;
52386;SDS011;38317;53.084;6.960;2023-02-03T08:47:36;15.55;;;2.92;;
52386;SDS011;38317;53.084;6.960;2023-02-03T08:50:04;11.45;;;2.65;;
52386;SDS011;38317;53.084;6.960;2023-02-03T08:52:31;11.70;;;2.05;;
52386;SDS011;38317;53.084;6.960;2023-02-03T08:54:57;15.35;;;2.58;;
52386;SDS011;38317;53.084;6.960;2023-02-03T08:57:23;14.85;;;2.13;;
52386;SDS011;38317;53.084;6.960;2023-02-03T08:59:48;12.88;;;2.25;;
52386;SDS011;38317;53.084;6.960;2023-02-03T09:02:16;13.45;;;2.60;;
52386;SDS011;38317;53.084;6.960;2023-02-03T09:04:44;13.75;;;2.67;;
52386;SDS011;38317;53.084;6.960;2023-02-03T09:07:10;14.10;;;2.55;;
52386;SDS011;38317;53.084;6.960;2023-02-03T09:09:37;11.25;;;2.17;;
52386;SDS011;38317;53.084;6.960;2023-02-03T09:12:04;17.08;;;2.90;;
52386;SDS011;38317;53.084;6.960;2023-02-03T09:14:31;14.68;;;2.40;;
52386;SDS011;38317;53.084;6.960;2023-02-03T09:16:59;17.20;;;2.70;;
52386;SDS011;38317;53.084;6.960;2023-02-03T09:19:27;19.88;;;4.32;;
52386;SDS011;38317;53.084;6.960;2023-02-03T09:21:53;17.08;;;3.40;;
52386;SDS011;38317;53.084;6.960;2023-02-03T09:24:18;17.60;;;2.83;;
52386;SDS011;38317;53.084;6.960;2023-02-03T09:26:44;20.65;;;3.75;;
52386;SDS011;38317;53.084;6.960;2023-02-03T09:29:10;16.30;;;3.05;;
52386;SDS011;38317;53.084;6.960;2023-02-03T09:31:36;19.27;;;3.33;;
52386;SDS011;38317;53.084;6.960;2023-02-03T09:34:02;18.83;;;2.97;;
52386;SDS011;38317;53.084;6.960;2023-02-03T09:36:27;22.13;;;3.47;;
52386;SDS011;38317;53.084;6.960;2023-02-03T09:38:53;15.70;;;3.13;;
52386;SDS011;38317;53.084;6.960;2023-02-03T09:46:48;19.05;;;3.95;;
52386;SDS011;38317;53.084;6.960;2023-02-03T09:51:49;21.02;;;3.33;;
52386;SDS011;38317;53.084;6.960;2023-02-03T09:57:30;18.88;;;3.63;;
52386;SDS011;38317;53.084;6.960;2023-02-03T10:00:02;18.50;;;2.95;;
52386;SDS011;38317;53.084;6.960;2023-02-03T10:18:52;22.70;;;2.95;;
52386;SDS011;38317;53.084;6.960;2023-02-03T10:27:15;24.15;;;3.60;;
52386;SDS011;38317;53.084;6.960;2023-02-03T10:29:47;21.95;;;3.88;;
52386;SDS011;38317;53.084;6.960;2023-02-03T10:32:29;17.08;;;2.97;;
52386;SDS011;38317;53.084;6.960;2023-02-03T10:34:55;25.70;;;4.13;;
52386;SDS011;38317;53.084;6.960;2023-02-03T10:37:24;23.42;;;3.42;;
52386;SDS011;38317;53.084;6.960;2023-02-03T10:39:56;18.05;;;3.22;;
52386;SDS011;38317;53.084;6.960;2023-02-03T10:42:23;33.38;;;4.30;;
52386;SDS011;38317;53.084;6.960;2023-02-03T10:47:30;20.98;;;3.60;;
52386;SDS011;38317;53.084;6.960;2023-02-03T10:50:04;17.50;;;2.70;;
52386;SDS011;38317;53.084;6.960;2023-02-03T10:55:45;20.08;;;3.88;;
52386;SDS011;38317;53.084;6.960;2023-02-03T10:58:14;16.02;;;3.13;;
52386;SDS011;38317;53.084;6.960;2023-02-03T11:00:44;19.63;;;3.20;;
52386;SDS011;38317;53.084;6.960;2023-02-03T11:05:35;21.75;;;3.08;;
52386;SDS011;38317;53.084;6.960;2023-02-03T11:08:01;20.23;;;3.13;;
52386;SDS011;38317;53.084;6.960;2023-02-03T11:10:28;23.33;;;3.80;;
52386;SDS011;38317;53.084;6.960;2023-02-03T11:16:04;19.13;;;3.55;;
52386;SDS011;38317;53.084;6.960;2023-02-03T11:18:45;29.65;;;4.20;;
52386;SDS011;38317;53.084;6.960;2023-02-03T11:21:27;28.20;;;5.47;;
52386;SDS011;38317;53.084;6.960;2023-02-03T11:24:01;24.08;;;4.20;;
52386;SDS011;38317;53.084;6.960;2023-02-03T11:26:29;30.63;;;4.78;;
52386;SDS011;38317;53.084;6.960;2023-02-03T11:28:59;17.33;;;3.25;;
52386;SDS011;38317;53.084;6.960;2023-02-03T11:31:33;26.25;;;4.53;;
52386;SDS011;38317;53.084;6.960;2023-02-03T11:34:02;25.10;;;4.53;;
52386;SDS011;38317;53.084;6.960;2023-02-03T11:36:38;21.67;;;4.15;;
52386;SDS011;38317;53.084;6.960;2023-02-03T11:39:37;22.17;;;4.28;;
52386;SDS011;38317;53.084;6.960;2023-02-03T11:42:00;22.52;;;3.88;;
52386;SDS011;38317;53.084;6.960;2023-02-03T11:44:27;23.45;;;3.70;;
52386;SDS011;38317;53.084;6.960;2023-02-03T11:47:02;20.15;;;4.00;;
52386;SDS011;38317;53.084;6.960;2023-02-03T11:55:11;20.60;;;3.78;;
52386;SDS011;38317;53.084;6.960;2023-02-03T11:58:02;16.10;;;3.08;;
52386;SDS011;38317;53.084;6.960;2023-02-03T12:00:38;21.15;;;3.17;;
52386;SDS011;38317;53.084;6.960;2023-02-03T12:03:29;27.02;;;4.13;;
52386;SDS011;38317;53.084;6.960;2023-02-03T12:09:26;21.83;;;3.65;;
52386;SDS011;38317;53.084;6.960;2023-02-03T12:12:42;23.25;;;3.35;;
52386;SDS011;38317;53.084;6.960;2023-02-03T12:18:55;28.52;;;5.10;;
52386;SDS011;38317;53.084;6.960;2023-02-03T12:21:45;20.40;;;3.35;;
52386;SDS011;38317;53.084;6.960;2023-02-03T12:30:13;20.08;;;3.38;;
52386;SDS011;38317;53.084;6.960;2023-02-03T12:33:19;23.10;;;4.63;;
52386;SDS011;38317;53.084;6.960;2023-02-03T12:38:30;16.80;;;2.67;;
52386;SDS011;38317;53.084;6.960;2023-02-03T12:41:29;17.83;;;2.80;;
52386;SDS011;38317;53.084;6.960;2023-02-03T12:44:04;23.10;;;3.50;;
52386;SDS011;38317;53.084;6.960;2023-02-03T12:46:41;19.77;;;3.03;;
52386;SDS011;38317;53.084;6.960;2023-02-03T12:51:52;15.15;;;3.00;;
52386;SDS011;38317;53.084;6.960;2023-02-03T13:00:44;18.25;;;2.67;;
52386;SDS011;38317;53.084;6.960;2023-02-03T13:03:50;13.25;;;2.40;;
52386;SDS011;38317;53.084;6.960;2023-02-03T13:06:35;13.10;;;2.45;;
52386;SDS011;38317;53.084;6.960;2023-02-03T13:16:50;16.45;;;2.92;;
52386;SDS011;38317;53.084;6.960;2023-02-03T13:19:20;20.85;;;3.25;;
52386;SDS011;38317;53.084;6.960;2023-02-03T13:21:50;16.48;;;2.63;;
52386;SDS011;38317;53.084;6.960;2023-02-03T13:24:17;17.65;;;2.65;;
52386;SDS011;38317;53.084;6.960;2023-02-03T13:43:10;23.38;;;3.45;;
52386;SDS011;38317;53.084;6.960;2023-02-03T13:45:44;23.38;;;3.72;;
52386;SDS011;38317;53.084;6.960;2023-02-03T13:48:17;29.50;;;4.78;;
52386;SDS011;38317;53.084;6.960;2023-02-03T13:50:49;27.77;;;4.50;;
52386;SDS011;38317;53.084;6.960;2023-02-03T13:53:25;26.52;;;4.25;;
52386;SDS011;38317;53.084;6.960;2023-02-03T13:55:56;20.65;;;4.20;;
52386;SDS011;38317;53.084;6.960;2023-02-03T13:58:31;23.55;;;3.47;;
52386;SDS011;38317;53.084;6.960;2023-02-03T14:01:04;28.00;;;4.78;;
52386;SDS011;38317;53.084;6.960;2023-02-03T14:04:04;27.98;;;4.38;;
52386;SDS011;38317;53.084;6.960;2023-02-03T14:07:01;20.98;;;3.80;;
52386;SDS011;38317;53.084;6.960;2023-02-03T14:14:42;21.40;;;3.30;;
52386;SDS011;38317;53.084;6.960;2023-02-03T14:26:17;26.35;;;4.07;;
52386;SDS011;38317;53.084;6.960;2023-02-03T14:31:23;21.92;;;3.72;;
52386;SDS011;38317;53.084;6.960;2023-02-03T14:36:36;20.35;;;3.30;;
52386;SDS011;38317;53.084;6.960;2023-02-03T14:47:27;19.15;;;3.30;;
52386;SDS011;38317;53.084;6.960;2023-02-03T14:50:25;17.63;;;3.45;;
52386;SDS011;38317;53.084;6.960;2023-02-03T14:53:14;20.83;;;2.47;;
52386;SDS011;38317;53.084;6.960;2023-02-03T14:58:33;16.50;;;3.10;;
52386;SDS011;38317;53.084;6.960;2023-02-03T15:01:05;21.08;;;3.17;;
52386;SDS011;38317;53.084;6.960;2023-02-03T15:03:32;21.80;;;3.65;;
52386;SDS011;38317;53.084;6.960;2023-02-03T15:06:03;19.38;;;3.10;;
52386;SDS011;38317;53.084;6.960;2023-02-03T15:10:59;16.02;;;2.38;;
52386;SDS011;38317;53.084;6.960;2023-02-03T15:13:44;20.17;;;3.33;;
52386;SDS011;38317;53.084;6.960;2023-02-03T15:16:12;19.67;;;2.97;;
52386;SDS011;38317;53.084;6.960;2023-02-03T15:18:42;14.77;;;2.80;;
52386;SDS011;38317;53.084;6.960;2023-02-03T15:21:18;13.70;;;2.42;;
52386;SDS011;38317;53.084;6.960;2023-02-03T15:23:45;25.60;;;3.35;;
52386;SDS011;38317;53.084;6.960;2023-02-03T15:26:20;18.52;;;2.58;;
52386;SDS011;38317;53.084;6.960;2023-02-03T15:29:01;21.08;;;4.40;;
52386;SDS011;38317;53.084;6.960;2023-02-03T15:31:32;20.55;;;3.00;;
52386;SDS011;38317;53.084;6.960;2023-02-03T15:34:09;18.65;;;3.08;;
52386;SDS011;38317;53.084;6.960;2023-02-03T15:36:45;22.55;;;3.58;;
52386;SDS011;38317;53.084;6.960;2023-02-03T15:39:38;18.42;;;2.95;;
52386;SDS011;38317;53.084;6.960;2023-02-03T15:42:22;14.20;;;3.08;;
52386;SDS011;38317;53.084;6.960;2023-02-03T15:44:56;15.20;;;2.13;;
52386;SDS011;38317;53.084;6.960;2023-02-03T15:47:45;16.50;;;2.92;;
52386;SDS011;38317;53.084;6.960;2023-02-03T15:50:32;16.30;;;2.97;;
52386;SDS011;38317;53.084;6.960;2023-02-03T15:59:00;13.00;;;2.95;;
52386;SDS011;38317;53.084;6.960;2023-02-03T16:01:26;24.40;;;3.35;;
52386;SDS011;38317;53.084;6.960;2023-02-03T16:03:53;15.30;;;1.98;;
52386;SDS011;38317;53.084;6.960;2023-02-03T16:06:24;17.00;;;2.40;;
52386;SDS011;38317;53.084;6.960;2023-02-03T16:08:54;18.70;;;2.50;;
52386;SDS011;38317;53.084;6.960;2023-02-03T16:14:09;14.30;;;1.88;;
52386;SDS011;38317;53.084;6.960;2023-02-03T16:19:15;15.15;;;1.95;;
52386;SDS011;38317;53.084;6.960;2023-02-03T16:29:56;11.60;;;1.95;;
52386;SDS011;38317;53.084;6.960;2023-02-03T16:33:14;20.15;;;3.05;;
52386;SDS011;38317;53.084;6.960;2023-02-03T16:36:01;20.60;;;2.63;;
52386;SDS011;38317;53.084;6.960;2023-02-03T16:38:55;17.17;;;3.05;;
52386;SDS011;38317;53.084;6.960;2023-02-03T16:41:41;15.10;;;2.78;;
52386;SDS011;38317;53.084;6.960;2023-02-03T16:44:26;23.65;;;3.67;;
52386;SDS011;38317;53.084;6.960;2023-02-03T16:47:23;21.85;;;3.63;;
52386;SDS011;38317;53.084;6.960;2023-02-03T16:50:13;14.10;;;2.63;;
52386;SDS011;38317;53.084;6.960;2023-02-03T16:53:05;22.42;;;3.35;;
52386;SDS011;38317;53.084;6.960;2023-02-03T16:55:44;19.75;;;2.28;;
52386;SDS011;38317;53.084;6.960;2023-02-03T16:58:10;21.42;;;3.92;;
52386;SDS011;38317;53.084;6.960;2023-02-03T17:00:37;22.05;;;4.05;;
52386;SDS011;38317;53.084;6.960;2023-02-03T17:03:06;23.63;;;3.65;;
52386;SDS011;38317;53.084;6.960;2023-02-03T17:05:38;22.98;;;3.33;;
52386;SDS011;38317;53.084;6.960;2023-02-03T17:08:06;17.73;;;3.00;;
52386;SDS011;38317;53.084;6.960;2023-02-03T17:10:35;21.42;;;3.10;;
52386;SDS011;38317;53.084;6.960;2023-02-03T17:13:03;19.88;;;2.47;;
52386;SDS011;38317;53.084;6.960;2023-02-03T17:15:29;25.77;;;3.40;;
52386;SDS011;38317;53.084;6.960;2023-02-03T17:17:56;23.45;;;3.25;;
52386;SDS011;38317;53.084;6.960;2023-02-03T17:20:22;17.77;;;3.28;;
52386;SDS011;38317;53.084;6.960;2023-02-03T17:22:48;25.23;;;3.25;;
52386;SDS011;38317;53.084;6.960;2023-02-03T17:25:17;15.93;;;2.78;;
52386;SDS011;38317;53.084;6.960;2023-02-03T17:27:43;22.13;;;3.70;;
52386;SDS011;38317;53.084;6.960;2023-02-03T17:30:09;20.77;;;3.05;;
52386;SDS011;38317;53.084;6.960;2023-02-03T17:32:35;22.27;;;3.28;;
52386;SDS011;38317;53.084;6.960;2023-02-03T17:35:00;15.52;;;3.30;;
52386;SDS011;38317;53.084;6.960;2023-02-03T17:37:26;15.27;;;3.10;;
52386;SDS011;38317;53.084;6.960;2023-02-03T17:39:52;16.90;;;2.63;;
52386;SDS011;38317;53.084;6.960;2023-02-03T17:42:18;20.75;;;4.43;;
52386;SDS011;38317;53.084;6.960;2023-02-03T17:44:43;16.33;;;2.67;;
52386;SDS011;38317;53.084;6.960;2023-02-03T17:47:09;26.67;;;2.53;;
52386;SDS011;38317;53.084;6.960;2023-02-03T17:49:35;19.35;;;3.55;;
52386;SDS011;38317;53.084;6.960;2023-02-03T17:52:00;21.55;;;2.47;;
52386;SDS011;38317;53.084;6.960;2023-02-03T17:54:26;18.70;;;2.72;;
52386;SDS011;38317;53.084;6.960;2023-02-03T17:56:52;25.60;;;3.10;;
52386;SDS011;38317;53.084;6.960;2023-02-03T17:59:18;21.42;;;3.10;;